Time;durP1;ratioP1;P1;durP2;ratioP2;P2;SDS_P1;SDS_P2;PMS_P1;PMS_P2;Temp;Humidity;BMP_temperature;BMP_pressure;BME280_temperature;BME280_humidity;BME280_pressure;Samples;Min_cycle;Max_cycle;Signal;HPM_P1;HPM_P2
2022/04/27 00:02:14;;;;;;;3.65;1.52;;;9.50;99.90;;;;;;5049611;28;20048;-74
2022/04/27 00:04:40;;;;;;;2.30;1.50;;;9.50;99.90;;;;;;5054115;28;20089;-75
2022/04/27 00:07:07;;;;;;;2.97;1.27;;;9.50;99.90;;;;;;5083995;28;20061;-75
2022/04/27 00:09:33;;;;;;;2.97;1.30;;;9.50;99.90;;;;;;5069939;28;20045;-74
2022/04/27 00:12:01;;;;;;;2.47;1.15;;;9.50;99.90;;;;;;5101612;27;20137;-80
2022/04/27 00:14:31;;;;;;;3.35;1.25;;;9.50;99.90;;;;;;5042419;28;20066;-76
2022/04/27 00:16:57;;;;;;;2.17;1.23;;;9.40;99.90;;;;;;5070647;28;20059;-76
2022/04/27 00:19:24;;;;;;;3.00;1.15;;;9.50;99.90;;;;;;5040010;28;20056;-76
2022/04/27 00:21:51;;;;;;;3.50;1.63;;;9.50;99.90;;;;;;5068017;28;20109;-76
2022/04/27 00:24:17;;;;;;;3.17;1.48;;;9.50;99.90;;;;;;5071405;28;20056;-76
2022/04/27 00:26:43;;;;;;;3.45;1.25;;;9.40;99.90;;;;;;5055329;28;20127;-77
2022/04/27 00:29:09;;;;;;;4.72;1.15;;;9.50;99.90;;;;;;5085189;28;20108;-76
2022/04/27 00:31:36;;;;;;;2.70;1.27;;;9.40;99.90;;;;;;5105585;28;20137;-76
2022/04/27 00:34:02;;;;;;;4.55;1.40;;;9.50;99.90;;;;;;5111221;27;20055;-75
2022/04/27 00:36:30;;;;;;;2.97;1.30;;;9.50;99.90;;;;;;5073054;28;20040;-75
2022/04/27 00:38:56;;;;;;;2.90;1.35;;;9.50;99.90;;;;;;5068667;28;20450;-75
2022/04/27 00:41:21;;;;;;;2.42;1.27;;;9.40;99.90;;;;;;5054804;28;20101;-75
2022/04/27 00:43:48;;;;;;;2.80;1.15;;;9.40;99.90;;;;;;5052495;28;20059;-75
2022/04/27 00:46:13;;;;;;;4.18;1.35;;;9.40;99.90;;;;;;5071269;28;20474;-75
2022/04/27 00:48:40;;;;;;;4.13;1.60;;;9.40;99.90;;;;;;5052244;28;20052;-75
2022/04/27 00:51:08;;;;;;;5.55;2.10;;;9.30;99.90;;;;;;5071506;28;20048;-76
2022/04/27 00:53:35;;;;;;;2.90;1.42;;;9.30;99.90;;;;;;5054257;28;20489;-75
2022/04/27 00:56:02;;;;;;;2.08;1.30;;;9.30;99.90;;;;;;5052335;28;20584;-76
2022/04/27 00:58:28;;;;;;;2.88;1.55;;;9.30;99.90;;;;;;5051601;28;20630;-75
2022/04/27 01:00:54;;;;;;;4.28;1.60;;;9.30;99.90;;;;;;5070203;28;20048;-75
2022/04/27 01:03:20;;;;;;;3.65;1.45;;;9.30;99.90;;;;;;5054517;28;20052;-75
2022/04/27 01:05:48;;;;;;;6.20;1.48;;;9.30;99.90;;;;;;5058947;28;20127;-75
2022/04/27 01:08:18;;;;;;;3.25;1.50;;;9.30;99.90;;;;;;5103365;27;21851;-76
2022/04/27 01:10:46;;;;;;;7.35;1.95;;;9.30;99.90;;;;;;5067396;28;20040;-75
2022/04/27 01:13:12;;;;;;;5.13;1.63;;;9.30;99.90;;;;;;5087466;27;20056;-73
2022/04/27 01:15:39;;;;;;;2.55;1.20;;;8.50;99.90;;;;;;5056368;28;20051;-75
2022/04/27 01:18:06;;;;;;;4.22;1.67;;;9.30;99.90;;;;;;5049866;28;20160;-75
2022/04/27 01:20:45;;;;;;;4.38;1.67;;;9.00;99.90;;;;;;5051376;28;20485;-73
2022/04/27 01:23:14;;;;;;;8.10;1.80;;;9.20;99.90;;;;;;5049810;28;20067;-75
2022/04/27 01:26:06;;;;;;;4.70;1.73;;;9.20;99.90;;;;;;5069119;28;20037;-75
2022/04/27 01:28:33;;;;;;;4.20;1.60;;;9.20;99.90;;;;;;5074525;28;20040;-71
2022/04/27 01:31:00;;;;;;;3.65;1.52;;;9.20;99.90;;;;;;5053070;28;20047;-75
2022/04/27 01:33:27;;;;;;;4.53;1.60;;;9.20;99.90;;;;;;5099959;27;20054;-75
2022/04/27 01:35:53;;;;;;;3.75;1.65;;;9.20;99.90;;;;;;5072697;28;20082;-74
2022/04/27 01:38:19;;;;;;;5.22;2.20;;;9.20;99.90;;;;;;5067946;28;20040;-75
2022/04/27 01:40:46;;;;;;;4.72;1.92;;;9.20;99.90;;;;;;5054804;28;20050;-75
2022/04/27 01:43:15;;;;;;;5.80;2.08;;;9.20;99.90;;;;;;5070642;28;20209;-75
2022/04/27 01:45:44;;;;;;;3.83;1.70;;;9.20;99.90;;;;;;5104311;27;20048;-75
2022/04/27 01:48:11;;;;;;;4.03;1.73;;;9.20;99.90;;;;;;5040853;28;20044;-75
2022/04/27 01:50:37;;;;;;;8.45;1.98;;;9.30;99.90;;;;;;5069179;28;20071;-75
2022/04/27 01:55:48;;;;;;;6.03;2.00;;;9.20;99.90;;;;;;5056360;28;20139;-75
2022/04/27 01:58:14;;;;;;;3.97;1.80;;;9.20;99.90;;;;;;5051365;28;20186;-75
2022/04/27 02:00:39;;;;;;;3.60;1.52;;;9.20;99.90;;;;;;5058765;28;20102;-77
2022/04/27 02:03:05;;;;;;;5.10;1.83;;;9.30;99.90;;;;;;5053895;28;20049;-76
2022/04/27 02:05:31;;;;;;;4.57;1.60;;;9.30;99.90;;;;;;5067176;28;20052;-74
2022/04/27 02:07:58;;;;;;;5.45;1.77;;;9.30;99.90;;;;;;5028546;28;20405;-75
2022/04/27 02:10:23;;;;;;;4.82;1.60;;;9.30;99.90;;;;;;5085026;28;20081;-75
2022/04/27 02:12:49;;;;;;;3.92;1.58;;;9.40;99.90;;;;;;5055049;28;20128;-75
2022/04/27 02:15:15;;;;;;;3.15;1.55;;;9.30;99.90;;;;;;5067756;28;20738;-76
2022/04/27 02:17:41;;;;;;;4.72;1.98;;;9.30;99.90;;;;;;5028401;28;20045;-75
2022/04/27 02:20:08;;;;;;;4.50;1.88;;;9.30;99.90;;;;;;5067713;28;20211;-74
2022/04/27 02:22:34;;;;;;;6.30;1.90;;;9.30;99.90;;;;;;5069108;28;20490;-75
2022/04/27 02:25:01;;;;;;;4.35;1.67;;;9.30;99.90;;;;;;5068033;28;20039;-75
2022/04/27 02:27:27;;;;;;;4.15;1.42;;;8.90;99.90;;;;;;5052560;28;20044;-75
2022/04/27 02:29:54;;;;;;;3.90;2.13;;;9.30;99.90;;;;;;5055855;28;20047;-75
2022/04/27 02:32:20;;;;;;;4.72;1.70;;;9.30;99.90;;;;;;5070928;28;20058;-75
2022/04/27 02:34:46;;;;;;;4.80;1.70;;;9.30;99.90;;;;;;5067015;28;20044;-74
2022/04/27 02:37:12;;;;;;;4.28;1.92;;;9.30;99.90;;;;;;5051242;28;20048;-74
2022/04/27 02:39:37;;;;;;;4.15;1.80;;;9.30;99.90;;;;;;5068741;28;20052;-77
2022/04/27 02:42:05;;;;;;;5.05;1.45;;;9.30;99.90;;;;;;5053249;28;20040;-75
2022/04/27 02:44:31;;;;;;;4.07;1.60;;;9.30;99.90;;;;;;5100631;27;20052;-75
2022/04/27 02:46:57;;;;;;;4.63;1.58;;;9.30;99.90;;;;;;5068572;28;20556;-75
2022/04/27 02:52:07;;;;;;;4.15;1.65;;;9.30;99.90;;;;;;5067459;28;20505;-74
2022/04/27 02:54:33;;;;;;;3.22;1.50;;;9.30;99.90;;;;;;5100829;27;20044;-74
2022/04/27 02:56:59;;;;;;;4.50;1.63;;;9.50;99.90;;;;;;5038574;28;20508;-75
2022/04/27 02:59:25;;;;;;;5.57;1.83;;;9.30;99.90;;;;;;5065401;28;20516;-74
2022/04/27 03:01:50;;;;;;;6.88;1.90;;;9.30;99.90;;;;;;5068885;28;20044;-75
2022/04/27 03:04:16;;;;;;;3.50;1.63;;;9.30;99.90;;;;;;5067394;28;20050;-75
2022/04/27 03:06:42;;;;;;;5.93;1.70;;;9.30;99.90;;;;;;5056569;28;20055;-74
2022/04/27 03:09:08;;;;;;;4.57;1.70;;;9.30;99.90;;;;;;5053778;28;20499;-75
2022/04/27 03:11:33;;;;;;;6.22;1.63;;;9.20;99.90;;;;;;5068452;28;21861;-75
2022/04/27 03:13:59;;;;;;;4.57;1.65;;;9.20;99.90;;;;;;5051278;28;20060;-75
2022/04/27 03:16:25;;;;;;;5.93;2.00;;;9.20;99.90;;;;;;5053865;28;20520;-75
2022/04/27 03:18:50;;;;;;;4.95;1.83;;;9.20;99.90;;;;;;5053261;28;20156;-75
2022/04/27 03:21:16;;;;;;;7.25;2.05;;;9.20;99.90;;;;;;5037737;28;20048;-75
2022/04/27 03:23:42;;;;;;;5.93;1.70;;;9.20;99.90;;;;;;5067599;28;20139;-75
2022/04/27 03:26:08;;;;;;;6.60;2.10;;;9.10;99.90;;;;;;5052271;28;20052;-75
2022/04/27 03:28:33;;;;;;;6.90;1.70;;;9.20;99.90;;;;;;5068505;28;20610;-75
2022/04/27 03:30:59;;;;;;;6.10;1.88;;;9.10;99.90;;;;;;5038409;28;20048;-75
2022/04/27 03:33:25;;;;;;;5.13;2.10;;;9.10;99.90;;;;;;5067752;28;20052;-75
2022/04/27 03:35:50;;;;;;;2.95;1.58;;;9.10;99.90;;;;;;5017470;28;20078;-75
2022/04/27 03:38:18;;;;;;;3.50;1.77;;;9.10;99.90;;;;;;5056134;28;20072;-74
2022/04/27 03:40:46;;;;;;;6.47;2.08;;;9.10;99.90;;;;;;5051626;28;20615;-75
2022/04/27 03:43:13;;;;;;;4.13;1.63;;;9.10;99.90;;;;;;5084228;28;20048;-75
2022/04/27 03:45:38;;;;;;;5.32;1.45;;;9.10;99.90;;;;;;5069360;28;20036;-75
2022/04/27 03:48:04;;;;;;;4.10;1.42;;;9.10;99.90;;;;;;5072669;28;20048;-73
2022/04/27 03:50:30;;;;;;;2.50;1.30;;;9.10;99.90;;;;;;5043390;28;20044;-73
2022/04/27 03:52:57;;;;;;;4.20;1.75;;;9.10;99.90;;;;;;5042066;28;20075;-75
2022/04/27 03:55:23;;;;;;;5.57;1.52;;;9.10;99.90;;;;;;5059171;28;20048;-74
2022/04/27 03:57:49;;;;;;;6.00;1.88;;;9.10;99.90;;;;;;5056310;28;20049;-75
2022/04/27 04:00:15;;;;;;;6.05;1.48;;;9.10;99.90;;;;;;5071482;28;20389;-74
2022/04/27 04:02:41;;;;;;;3.80;1.45;;;9.10;99.90;;;;;;5030568;28;20048;-74
2022/04/27 04:05:07;;;;;;;4.63;1.48;;;9.10;99.90;;;;;;5072042;28;20052;-75
2022/04/27 04:07:33;;;;;;;3.53;1.60;;;9.10;99.90;;;;;;5070598;28;20519;-74
2022/04/27 04:10:00;;;;;;;5.68;1.63;;;9.10;99.90;;;;;;5076024;28;20062;-73
2022/04/27 04:12:26;;;;;;;2.67;1.15;;;9.10;99.90;;;;;;5072826;28;20242;-74
2022/04/27 04:14:52;;;;;;;5.40;1.40;;;9.10;99.90;;;;;;5053898;28;21744;-74
2022/04/27 04:17:18;;;;;;;3.42;1.40;;;9.10;99.90;;;;;;5103244;27;20059;-75
2022/04/27 04:19:44;;;;;;;3.20;1.20;;;9.10;99.90;;;;;;5025664;28;20130;-74
2022/04/27 04:22:10;;;;;;;3.95;1.35;;;8.40;99.90;;;;;;5053418;28;20047;-74
2022/04/27 04:24:36;;;;;;;3.70;1.38;;;9.10;99.90;;;;;;5051974;28;20040;-75
2022/04/27 04:29:47;;;;;;;4.07;1.50;;;9.10;99.90;;;;;;5057130;28;20044;-75
2022/04/27 04:32:13;;;;;;;5.90;1.80;;;9.00;99.90;;;;;;5070004;28;20397;-75
2022/04/27 04:34:38;;;;;;;6.82;1.95;;;9.10;99.90;;;;;;5056658;28;20097;-75
2022/04/27 04:37:05;;;;;;;6.68;1.98;;;9.10;99.90;;;;;;5044478;28;21272;-75
2022/04/27 04:39:31;;;;;;;9.85;2.97;;;9.10;99.90;;;;;;5077930;28;20051;-75
2022/04/27 04:41:56;;;;;;;10.30;2.00;;;9.10;99.90;;;;;;5057838;28;20507;-75
2022/04/27 04:44:22;;;;;;;4.68;1.90;;;9.10;99.90;;;;;;5072380;28;20097;-74
2022/04/27 04:46:48;;;;;;;13.27;2.38;;;9.10;99.90;;;;;;5074951;28;20125;-75
2022/04/27 04:49:13;;;;;;;9.57;2.25;;;9.10;99.90;;;;;;5075976;28;20539;-75
2022/04/27 04:51:39;;;;;;;6.45;2.00;;;9.10;99.90;;;;;;5074086;28;20044;-75
2022/04/27 04:54:05;;;;;;;6.25;2.10;;;9.10;99.90;;;;;;5053871;28;20401;-75
2022/04/27 04:56:31;;;;;;;8.85;2.60;;;9.10;99.90;;;;;;5071781;28;20493;-75
2022/04/27 04:58:57;;;;;;;9.93;3.38;;;9.20;99.90;;;;;;5072155;28;20051;-75
2022/04/27 05:01:22;;;;;;;8.68;2.60;;;9.20;99.90;;;;;;5037579;28;20135;-75
2022/04/27 05:03:51;;;;;;;8.20;2.40;;;9.20;99.90;;;;;;5072295;28;20121;-77
2022/04/27 05:06:19;;;;;;;12.07;2.08;;;9.20;99.90;;;;;;5040868;28;20051;-76
2022/04/27 05:08:45;;;;;;;7.90;2.60;;;9.20;99.90;;;;;;5038574;28;20084;-78
2022/04/27 05:11:11;;;;;;;8.15;2.50;;;9.10;99.90;;;;;;5058241;28;20052;-76
2022/04/27 05:13:38;;;;;;;10.05;2.20;;;9.20;99.90;;;;;;5070467;28;20060;-76
2022/04/27 05:16:05;;;;;;;6.88;2.22;;;9.20;99.90;;;;;;5059542;28;20055;-76
2022/04/27 05:18:35;;;;;;;10.60;2.38;;;9.20;99.90;;;;;;5046343;28;20044;-76
2022/04/27 05:21:01;;;;;;;10.32;2.40;;;9.20;99.90;;;;;;5108794;27;20109;-75
2022/04/27 05:23:27;;;;;;;10.13;2.70;;;9.20;99.90;;;;;;5044238;28;20040;-76
2022/04/27 05:25:53;;;;;;;8.50;2.10;;;9.20;99.90;;;;;;5059219;28;20048;-75
2022/04/27 05:28:18;;;;;;;8.55;2.45;;;9.20;99.90;;;;;;5073351;28;20056;-77
2022/04/27 05:33:28;;;;;;;11.27;2.28;;;9.30;99.90;;;;;;5052885;28;20409;-76
2022/04/27 05:35:54;;;;;;;13.13;2.33;;;9.30;99.90;;;;;;5069726;28;20048;-75
2022/04/27 05:38:19;;;;;;;8.45;2.50;;;9.30;99.90;;;;;;5099908;27;20055;-75
2022/04/27 05:40:46;;;;;;;9.73;2.08;;;9.30;99.90;;;;;;5072653;28;20060;-76
2022/04/27 05:43:12;;;;;;;9.93;2.47;;;9.30;99.90;;;;;;5071834;28;20175;-75
2022/04/27 05:45:38;;;;;;;10.95;2.20;;;9.30;99.90;;;;;;5103691;27;20119;-76
2022/04/27 05:48:04;;;;;;;10.27;2.10;;;9.30;99.90;;;;;;5070023;28;20446;-75
2022/04/27 05:50:30;;;;;;;6.70;2.00;;;9.30;99.90;;;;;;5054794;28;20888;-75
2022/04/27 05:52:58;;;;;;;12.70;2.13;;;9.30;99.90;;;;;;5053189;28;20049;-75
2022/04/27 05:55:24;;;;;;;7.15;2.10;;;9.30;99.90;;;;;;5068904;28;20048;-75
2022/04/27 05:57:50;;;;;;;6.90;2.10;;;9.30;99.90;;;;;;5072249;28;20040;-75
2022/04/27 06:00:17;;;;;;;8.63;2.38;;;9.30;99.90;;;;;;5042837;28;20142;-75
2022/04/27 06:02:44;;;;;;;6.72;2.00;;;9.30;99.90;;;;;;5073908;28;20514;-74
2022/04/27 06:05:10;;;;;;;5.90;2.28;;;9.40;99.90;;;;;;5041087;28;20140;-75
2022/04/27 06:07:37;;;;;;;6.65;2.45;;;9.40;99.90;;;;;;5057608;28;20052;-77
2022/04/27 06:10:07;;;;;;;6.65;2.00;;;9.40;99.90;;;;;;5070926;28;20064;-75
2022/04/27 06:12:35;;;;;;;8.95;2.13;;;9.50;99.90;;;;;;5036419;28;20047;-75
2022/04/27 06:15:10;;;;;;;7.07;1.83;;;9.50;99.90;;;;;;5056532;28;20080;-75
2022/04/27 06:17:35;;;;;;;8.10;2.20;;;9.50;99.90;;;;;;5071303;28;20048;-75
2022/04/27 06:20:02;;;;;;;8.80;2.45;;;9.60;99.90;;;;;;5057758;28;20146;-76
2022/04/27 06:22:28;;;;;;;9.52;2.03;;;9.60;99.90;;;;;;5072045;28;20056;-75
2022/04/27 06:24:54;;;;;;;7.60;2.10;;;9.60;99.90;;;;;;5067206;28;20078;-75
2022/04/27 06:27:21;;;;;;;11.60;2.33;;;9.70;99.90;;;;;;5070200;28;20067;-75
2022/04/27 06:29:47;;;;;;;8.20;2.33;;;9.70;99.90;;;;;;5103519;27;20040;-76
2022/04/27 06:32:12;;;;;;;5.82;1.90;;;9.80;99.90;;;;;;5055203;28;20063;-73
2022/04/27 06:34:38;;;;;;;7.57;2.10;;;9.80;99.90;;;;;;5050704;28;20083;-75
2022/04/27 06:37:04;;;;;;;8.90;2.10;;;9.90;99.90;;;;;;5074229;28;20048;-81
2022/04/27 06:39:30;;;;;;;4.35;1.70;;;10.00;99.90;;;;;;5052979;28;20040;-76
2022/04/27 06:41:55;;;;;;;7.95;2.50;;;10.00;99.90;;;;;;5072162;28;20106;-76
2022/04/27 06:44:21;;;;;;;8.57;1.70;;;10.10;99.90;;;;;;5056406;28;20055;-76
2022/04/27 06:46:47;;;;;;;7.18;2.15;;;10.10;99.90;;;;;;5069018;28;20441;-76
2022/04/27 06:49:13;;;;;;;6.63;2.00;;;10.20;99.90;;;;;;5066792;28;20448;-75
2022/04/27 06:51:38;;;;;;;6.60;2.13;;;10.30;99.90;;;;;;5061308;28;20052;-77
2022/04/27 06:54:04;;;;;;;6.72;1.80;;;10.30;99.90;;;;;;5056252;28;20122;-76
2022/04/27 06:56:30;;;;;;;7.88;2.10;;;10.40;99.90;;;;;;5057229;28;20055;-77
2022/04/27 06:58:56;;;;;;;8.40;2.03;;;10.50;99.90;;;;;;5056790;28;20044;-77
2022/04/27 07:01:22;;;;;;;11.05;2.15;;;10.50;99.90;;;;;;5060280;28;20080;-78
2022/04/27 07:03:53;;;;;;;8.45;2.10;;;10.60;99.90;;;;;;5042985;28;20029;-78
2022/04/27 07:06:20;;;;;;;8.60;1.98;;;10.60;99.90;;;;;;5094917;28;20040;-78
2022/04/27 07:08:46;;;;;;;6.65;1.90;;;10.70;99.90;;;;;;5075630;28;20113;-79
2022/04/27 07:11:12;;;;;;;9.65;2.22;;;10.80;99.90;;;;;;5043511;28;20044;-78
2022/04/27 07:13:38;;;;;;;7.45;2.03;;;10.80;99.90;;;;;;5040794;28;20059;-78
2022/04/27 07:16:05;;;;;;;8.25;1.65;;;10.80;99.90;;;;;;5053881;28;20052;-76
2022/04/27 07:18:32;;;;;;;5.53;1.92;;;10.90;99.90;;;;;;5087361;28;20044;-75
2022/04/27 07:20:57;;;;;;;7.00;2.10;;;11.00;99.90;;;;;;5059916;28;20045;-75
2022/04/27 07:23:23;;;;;;;8.52;1.85;;;11.10;99.90;;;;;;5111175;27;20538;-75
2022/04/27 07:25:49;;;;;;;8.15;2.20;;;11.10;99.90;;;;;;5060175;28;20044;-75
2022/04/27 07:28:15;;;;;;;5.72;1.85;;;11.20;99.90;;;;;;5076322;28;20056;-71
2022/04/27 07:30:41;;;;;;;7.97;2.00;;;11.20;99.90;;;;;;5110836;28;20452;-75
2022/04/27 07:33:07;;;;;;;6.80;2.13;;;11.20;99.90;;;;;;5026863;28;20123;-75
2022/04/27 07:35:33;;;;;;;6.90;1.85;;;11.30;99.90;;;;;;5077463;28;20136;-76
2022/04/27 07:37:59;;;;;;;7.43;1.92;;;11.40;99.90;;;;;;5059511;28;20095;-75
2022/04/27 07:40:24;;;;;;;6.22;2.22;;;11.40;99.90;;;;;;5076814;28;20125;-75
2022/04/27 07:42:50;;;;;;;7.05;1.77;;;11.50;99.90;;;;;;5078493;28;20118;-75
2022/04/27 07:45:16;;;;;;;6.90;2.10;;;11.60;99.90;;;;;;5077693;28;20083;-70
2022/04/27 07:47:46;;;;;;;7.93;1.92;;;11.70;99.90;;;;;;5080039;28;20404;-75
2022/04/27 07:50:14;;;;;;;5.15;1.70;;;11.80;99.90;;;;;;5077528;28;20056;-75
2022/04/27 07:52:41;;;;;;;7.10;1.77;;;11.90;99.90;;;;;;5075250;28;20123;-75
2022/04/27 07:55:08;;;;;;;8.80;2.08;;;11.90;99.90;;;;;;5074550;28;20048;-75
2022/04/27 07:57:34;;;;;;;7.10;1.90;;;12.00;99.90;;;;;;5057353;28;20071;-76
2022/04/27 08:00:03;;;;;;;8.32;1.90;;;12.10;99.90;;;;;;5076601;28;20093;-75
2022/04/27 08:02:29;;;;;;;8.75;1.77;;;12.10;99.90;;;;;;5059263;28;20047;-75
2022/04/27 08:04:55;;;;;;;6.63;1.80;;;12.00;99.90;;;;;;5109450;28;20501;-75
2022/04/27 08:07:21;;;;;;;6.07;1.52;;;12.30;99.90;;;;;;5043127;28;20123;-75
2022/04/27 08:09:47;;;;;;;5.63;1.90;;;12.40;99.90;;;;;;5074806;28;20040;-75
2022/04/27 08:12:12;;;;;;;7.72;2.28;;;12.50;99.90;;;;;;5060528;28;20048;-75
2022/04/27 08:14:38;;;;;;;6.18;1.98;;;12.60;99.90;;;;;;5041609;28;20051;-75
2022/04/27 08:17:04;;;;;;;6.40;2.10;;;12.70;99.90;;;;;;5060072;28;20136;-75
2022/04/27 08:19:30;;;;;;;4.22;1.60;;;12.80;99.90;;;;;;5058729;28;20058;-75
2022/04/27 08:21:55;;;;;;;8.75;1.88;;;12.80;99.90;;;;;;5043302;28;20056;-75
2022/04/27 08:24:22;;;;;;;8.55;2.00;;;12.80;99.90;;;;;;5075744;28;20048;-75
2022/04/27 08:26:48;;;;;;;6.53;1.75;;;12.80;99.90;;;;;;5059604;28;20086;-75
2022/04/27 08:29:14;;;;;;;7.35;1.80;;;12.80;99.90;;;;;;5044334;28;20040;-75
2022/04/27 08:31:40;;;;;;;6.05;1.60;;;12.80;99.90;;;;;;5091172;28;20105;-75
2022/04/27 08:34:06;;;;;;;6.88;2.10;;;12.90;99.90;;;;;;5060834;28;20048;-75
2022/04/27 08:36:33;;;;;;;6.28;1.67;;;12.90;99.90;;;;;;5062625;28;20048;-75
2022/04/27 08:39:03;;;;;;;7.97;2.10;;;13.00;99.90;;;;;;5111970;27;20106;-74
2022/04/27 08:41:29;;;;;;;7.28;2.20;;;13.00;99.90;;;;;;5078988;28;20118;-75
2022/04/27 08:43:56;;;;;;;6.82;1.85;;;13.10;99.90;;;;;;5075407;28;20064;-75
2022/04/27 08:46:23;;;;;;;7.68;1.80;;;13.20;99.90;;;;;;5080109;28;20051;-75
2022/04/27 08:48:50;;;;;;;6.47;1.60;;;13.20;99.90;;;;;;5078070;28;20044;-82
2022/04/27 08:51:17;;;;;;;7.15;1.73;;;13.10;99.90;;;;;;5059579;28;20063;-76
2022/04/27 08:53:44;;;;;;;5.47;1.70;;;13.10;99.90;;;;;;5075217;28;20036;-76
2022/04/27 08:56:10;;;;;;;7.40;1.73;;;13.10;99.90;;;;;;5077044;28;20055;-75
2022/04/27 08:58:36;;;;;;;7.18;1.90;;;13.10;99.90;;;;;;5074925;28;20056;-76
2022/04/27 09:01:02;;;;;;;5.60;1.83;;;13.10;99.90;;;;;;5044224;28;20052;-75
2022/04/27 09:03:29;;;;;;;5.50;1.70;;;13.20;99.90;;;;;;5076812;28;20087;-75
2022/04/27 09:06:00;;;;;;;5.85;1.60;;;13.30;99.90;;;;;;5095413;28;20044;-76
2022/04/27 09:08:40;;;;;;;6.00;1.50;;;13.40;99.90;;;;;;5061551;28;20056;-75
2022/04/27 09:11:15;;;;;;;7.03;1.88;;;13.50;99.90;;;;;;5045799;28;20131;-75
2022/04/27 09:13:53;;;;;;;8.48;1.80;;;13.70;99.90;;;;;;5075650;28;20056;-75
2022/04/27 09:16:24;;;;;;;6.50;1.55;;;13.80;99.70;;;;;;5078447;28;20057;-75
2022/04/27 09:21:58;;;;;;;5.88;1.73;;;13.60;99.40;;;;;;5078332;28;20098;-76
2022/04/27 09:24:25;;;;;;;6.22;1.80;;;13.60;99.00;;;;;;5059952;28;20047;-74
2022/04/27 09:27:21;;;;;;;5.82;1.80;;;13.80;99.50;;;;;;5077242;28;20044;-76
2022/04/27 09:30:07;;;;;;;5.43;1.50;;;14.10;99.30;;;;;;5059122;28;20060;-75
2022/04/27 09:32:34;;;;;;;8.32;1.83;;;14.30;98.90;;;;;;5114037;27;20294;-75
2022/04/27 09:35:02;;;;;;;4.70;1.75;;;14.50;98.70;;;;;;5042054;28;20501;-76
2022/04/27 09:37:30;;;;;;;5.95;1.70;;;14.50;98.20;;;;;;5078523;28;20048;-75
2022/04/27 09:40:12;;;;;;;4.80;1.80;;;14.60;98.00;;;;;;5061995;28;20400;-76
2022/04/27 09:42:44;;;;;;;6.32;1.63;;;14.70;98.20;;;;;;5061154;28;20052;-72
2022/04/27 09:45:19;;;;;;;7.53;1.70;;;14.80;97.90;;;;;;5063260;28;20118;-76
2022/04/27 09:47:50;;;;;;;;;;;14.80;97.20;;;;;;5092466;28;20094;-76
2022/04/27 09:50:17;;;;;;;5.03;2.05;;;14.70;95.20;;;;;;5111620;27;19931;-79
2022/04/27 09:52:44;;;;;;;6.15;1.55;;;14.80;97.60;;;;;;5108045;27;20047;-77
2022/04/27 09:55:10;;;;;;;7.65;1.90;;;14.80;97.30;;;;;;5041962;28;20039;-75
2022/04/27 09:57:41;;;;;;;5.90;1.63;;;14.90;97.30;;;;;;5074963;28;20082;-78
2022/04/27 10:00:08;;;;;;;4.93;1.25;;;14.90;96.50;;;;;;5059351;28;20143;-76
2022/04/27 10:02:35;;;;;;;7.57;1.67;;;15.00;96.90;;;;;;5061133;28;20051;-75
2022/04/27 10:05:01;;;;;;;9.25;1.67;;;14.90;96.50;;;;;;5074605;28;20379;-76
2022/04/27 10:07:31;;;;;;;4.32;1.45;;;15.00;96.60;;;;;;5078362;28;20055;-75
2022/04/27 10:09:59;;;;;;;9.55;1.83;;;15.00;96.30;;;;;;5072814;28;20112;-75
2022/04/27 10:12:25;;;;;;;5.20;1.90;;;15.30;96.50;;;;;;5109615;27;20404;-76
2022/04/27 10:14:51;;;;;;;5.97;1.45;;;15.70;96.30;;;;;;5072993;28;20052;-76
2022/04/27 10:17:17;;;;;;;8.25;1.90;;;15.80;95.30;;;;;;5094936;28;20059;-77
2022/04/27 10:19:50;;;;;;;5.18;1.40;;;15.80;94.80;;;;;;5044162;28;20089;-76
2022/04/27 10:22:32;;;;;;;5.25;1.83;;;15.90;94.10;;;;;;5111573;27;20504;-75
2022/04/27 10:25:09;;;;;;;5.80;1.35;;;15.60;93.10;;;;;;5059456;28;20140;-77
2022/04/27 10:27:37;;;;;;;3.75;1.40;;;15.40;93.80;;;;;;5060294;28;20059;-75
2022/04/27 10:30:08;;;;;;;4.60;1.45;;;15.40;94.20;;;;;;5060266;28;20467;-76
2022/04/27 10:32:38;;;;;;;5.93;1.60;;;15.50;94.20;;;;;;5077824;28;20126;-75
2022/04/27 10:38:05;;;;;;;5.28;1.23;;;15.70;93.00;;;;;;5075969;28;20062;-76
2022/04/27 10:40:37;;;;;;;5.65;1.85;;;15.70;93.30;;;;;;5076200;28;20060;-75
2022/04/27 10:43:15;;;;;;;5.22;1.50;;;15.50;93.20;;;;;;5071403;28;20048;-76
2022/04/27 10:45:48;;;;;;;5.45;1.50;;;15.50;93.80;;;;;;5040551;28;20058;-76
2022/04/27 10:48:48;;;;;;;7.43;1.40;;;15.60;93.10;;;;;;5109928;27;20090;-76
2022/04/27 10:51:13;;;;;;;3.40;1.33;;;16.10;91.80;;;;;;5075531;28;20040;-76
2022/04/27 10:53:41;;;;;;;7.70;2.03;;;16.40;92.70;;;;;;5071620;28;20059;-76
2022/04/27 10:56:26;;;;;;;5.25;1.63;;;16.40;91.90;;;;;;5054560;28;20075;-75
2022/04/27 10:58:52;;;;;;;5.25;1.70;;;16.60;90.70;;;;;;5053884;28;20106;-76
2022/04/27 11:01:30;;;;;;;4.45;1.30;;;16.70;91.00;;;;;;5057185;28;20060;-75
2022/04/27 11:04:01;;;;;;;6.00;1.60;;;16.90;90.30;;;;;;5041758;28;20051;-76
2022/04/27 11:06:27;;;;;;;4.68;1.50;;;16.80;89.30;;;;;;5057619;28;20044;-76
2022/04/27 11:09:10;;;;;;;5.30;1.42;;;17.00;90.20;;;;;;5057870;28;20412;-76
2022/04/27 11:11:56;;;;;;;4.45;1.55;;;17.10;89.30;;;;;;5058307;28;20055;-76
2022/04/27 11:14:29;;;;;;;6.13;1.58;;;17.40;86.80;;;;;;5075911;28;20383;-76
2022/04/27 11:16:55;;;;;;;5.43;1.55;;;17.90;87.10;;;;;;5075679;28;20178;-76
2022/04/27 11:19:32;;;;;;;3.97;1.35;;;18.10;85.50;;;;;;5057354;28;20558;-77
2022/04/27 11:22:11;;;;;;;7.15;1.95;;;18.20;84.60;;;;;;5057367;28;20044;-76
2022/04/27 11:24:37;;;;;;;4.38;1.40;;;18.40;82.60;;;;;;5040265;28;20043;-77
2022/04/27 11:27:03;;;;;;;5.40;1.50;;;18.60;82.50;;;;;;5054460;28;20108;-76
2022/04/27 11:29:30;;;;;;;5.85;1.63;;;18.20;80.20;;;;;;5107757;28;20512;-76
2022/04/27 11:31:55;;;;;;;4.72;1.35;;;17.90;80.30;;;;;;5072448;28;20037;-77
2022/04/27 11:34:26;;;;;;;4.03;1.27;;;17.90;80.40;;;;;;5058746;28;20047;-76
2022/04/27 11:36:54;;;;;;;4.35;1.30;;;17.80;80.40;;;;;;5056793;28;20036;-77
2022/04/27 11:39:25;;;;;;;4.30;1.70;;;18.00;80.30;;;;;;5059277;28;20045;-77
2022/04/27 11:42:01;;;;;;;6.38;1.60;;;18.40;78.70;;;;;;5054882;28;20148;-77
2022/04/27 11:44:31;;;;;;;4.43;1.52;;;18.50;77.00;;;;;;5058538;28;20392;-76
2022/04/27 11:46:57;;;;;;;4.25;1.50;;;18.60;76.50;;;;;;5107395;28;20055;-77
2022/04/27 11:49:23;;;;;;;4.70;1.30;;;18.60;76.30;;;;;;5055759;28;20135;-77
2022/04/27 11:51:50;;;;;;;5.07;1.30;;;18.40;75.90;;;;;;5072829;28;20044;-77
2022/04/27 11:54:30;;;;;;;4.32;1.48;;;18.50;75.50;;;;;;5058460;28;20048;-77
2022/04/27 11:57:03;;;;;;;3.63;1.33;;;18.30;74.60;;;;;;5073491;28;20452;-77
2022/04/27 11:59:45;;;;;;;5.03;1.38;;;18.50;75.00;;;;;;5058329;28;20063;-77
2022/04/27 12:02:11;;;;;;;3.60;1.30;;;18.90;74.00;;;;;;5055990;28;20910;-77
2022/04/27 12:04:37;;;;;;;5.22;1.50;;;18.50;73.30;;;;;;5094524;28;20134;-77
2022/04/27 12:07:16;;;;;;;3.45;1.13;;;18.50;73.50;;;;;;5069245;28;20040;-77
2022/04/27 12:09:55;;;;;;;4.05;1.40;;;18.10;71.80;;;;;;5093877;28;20055;-77
2022/04/27 12:12:22;;;;;;;3.33;1.42;;;18.10;72.10;;;;;;5078433;28;20456;-77
2022/04/27 12:14:47;;;;;;;5.80;1.23;;;18.30;73.10;;;;;;5058468;28;20055;-77
2022/04/27 12:17:44;;;;;;;4.82;1.40;;;18.10;72.00;;;;;;5062209;28;20208;-76
2022/04/27 12:20:42;;;;;;;4.80;1.30;;;18.30;71.00;;;;;;5078030;28;20059;-77
2022/04/27 12:23:16;;;;;;;5.07;1.30;;;18.30;71.30;;;;;;5060859;28;20140;-76
2022/04/27 12:25:48;;;;;;;4.70;1.27;;;18.50;71.80;;;;;;5061370;28;20051;-76
2022/04/27 12:28:19;;;;;;;4.45;1.55;;;18.70;71.40;;;;;;5080870;28;20052;-75
2022/04/27 12:30:55;;;;;;;5.80;1.45;;;18.90;69.70;;;;;;5063767;28;20051;-76
2022/04/27 12:33:27;;;;;;;3.90;1.00;;;19.10;68.60;;;;;;5080170;28;20614;-75
2022/04/27 12:39:11;;;;;;;4.97;1.30;;;18.70;68.70;;;;;;5079746;28;20052;-76
2022/04/27 12:41:44;;;;;;;8.57;1.60;;;18.70;68.70;;;;;;5080380;28;20053;-75
2022/04/27 12:44:35;;;;;;;4.63;1.20;;;18.60;69.10;;;;;;5077516;28;20616;-76
2022/04/27 12:47:08;;;;;;;4.65;1.70;;;18.80;69.70;;;;;;5061686;28;20047;-76
2022/04/27 12:49:42;;;;;;;5.85;1.55;;;18.70;68.60;;;;;;5113423;27;20052;-76
2022/04/27 12:52:29;;;;;;;4.63;1.20;;;19.20;67.80;;;;;;5079215;28;20068;-76
2022/04/27 12:55:09;;;;;;;3.05;1.35;;;19.30;66.90;;;;;;5110444;27;20044;-76
2022/04/27 12:57:54;;;;;;;4.30;1.40;;;19.70;67.30;;;;;;5113753;27;20044;-75
2022/04/27 13:00:22;;;;;;;4.43;1.48;;;19.80;66.10;;;;;;5095798;28;20481;-76
2022/04/27 13:02:48;;;;;;;7.95;1.60;;;19.50;66.90;;;;;;5063774;28;20097;-75
2022/04/27 13:05:15;;;;;;;6.28;2.00;;;19.50;67.20;;;;;;5080302;28;20055;-77
2022/04/27 13:07:41;;;;;;;3.88;1.48;;;19.80;67.50;;;;;;5078211;28;20048;-76
2022/04/27 13:12:53;;;;;;;4.55;1.75;;;20.80;66.90;;;;;;5084596;27;20037;-76
2022/04/27 13:15:19;;;;;;;3.67;1.20;;;20.40;64.30;;;;;;5045501;28;20083;-77
2022/04/27 13:17:46;;;;;;;5.63;1.30;;;19.80;64.70;;;;;;5078412;28;20414;-73
2022/04/27 13:20:12;;;;;;;4.10;1.17;;;19.20;65.10;;;;;;5076079;28;20044;-76
2022/04/27 13:22:39;;;;;;;3.15;1.13;;;18.80;65.30;;;;;;5045094;28;20048;-76